Terminal Aerodrome Forecast
Issued by NWS Twin Cities, MN

Home | Current Version | Previous Version | Graphics & Text | Print | Product List | Glossary On
Versions: 1 2 3 4 5 6 7 8 9 10 11 12 13 14
000
FTUS43 KMPX 271739
TAFEAU
TAF
KEAU 271739Z 2718/2818 21010KT P6SM BKN200
     FM280000 18006KT P6SM SCT100 BKN150
     FM280600 14006KT 6SM -DZ BR SCT015 OVC040
     FM280800 13005KT 4SM -DZ BR SCT006 OVC010
     FM281000 VRB03KT 2SM -DZ BR OVC006
     FM281600 07004KT 4SM -RA BR OVC008=

USA.gov is the U.S. government's official web portal to all federal, state and local government web resources and services.